Weather History for Macomb, IL

Change the Weather History Date:

Saturday, June 22, 2013

  Actual Average (KBRL) Record (KBRL)
Temperature  
Mean Temperature 84 °F 75 °F  
Max Temperature 93 °F 85 °F 100 °F (1911)
Min Temperature 75 °F 65 °F 42 °F (1902)
Degree Days  
Heating Degree Days 0 0  
Month to date heating degree days 9  
Since 1 June heating degree days 9  
Since 1 July heating degree days 5596  
Cooling Degree Days 19 10  
Month to date cooling degree days 171  
Year to date cooling degree days 274  
Since 1 June cooling degree days 171  
Growing Degree Days 34 (Base 50)    
Moisture  
Dew Point 71 °F    
Average Humidity 66    
Maximum Humidity 77    
Minimum Humidity 47    
Precipitation  
Precipitation 0.00 in 0.15 in 4.22 in (2007)
Month to date precipitation 3.32  
Year to date precipitation 17.58  
Sea Level Pressure  
Sea Level Pressure 30.02 in    
Wind  
Wind Speed 10 mph (SSW)    
Max Wind Speed 20 mph    
Max Gust Speed 25 mph    
Visibility 10 miles    
Events      
T = Trace of Precipitation, MM = Missing Value Source: NWS Daily Summary

Daily Weather History Graph

Daily Weather History Graph

Search for Another Location

Airport:

Trip Planner

Search our weather history database for the weather conditions in past years. The results will help you decide how hot, cold, wet, or windy it might be!

Date:

Astronomy

Jun. 22, 2013 Rise Set
Actual Time 5:32 AM CDT 8:36 PM CDT
Civil Twilight 4:59 AM CDT 9:10 PM CDT
Nautical Twilight 4:16 AM CDT 9:52 PM CDT
Astronomical Twilight 3:26 AM CDT 10:42 PM CDT
Moon 7:51 PM CDT (6/22) 4:45 AM CDT (6/22)
Length of Visible Light 16h 10m
Length of Day
15h 04m
Waxing Gibbous, 99% of the Moon is Illuminated
Jun 22
Waxing Gibbous
Jun 23
Full
Jun 29
Last Quarter
Jul 8
New
Jul 15
First Quarter

Hourly Weather History & Observations

Time (CDT) Temp. Heat Index Dew Point Humidity Pressure Visibility Wind Dir Wind Speed Gust Speed Precip Events Conditions
12:15 AM 82.4 °F 87.7 °F 72.5 °F 72% 30.04 in 10.0 mi South 10.4 mph - N/A   Clear
12:35 AM 82.4 °F 87.7 °F 72.5 °F 72% 30.03 in 10.0 mi South 8.1 mph - N/A   Clear
12:55 AM 82.6 °F 87.8 °F 72.5 °F 71% 30.03 in 10.0 mi South 10.4 mph 17.3 mph N/A   Clear
1:15 AM 82.4 °F 87.7 °F 72.5 °F 72% 30.02 in 10.0 mi South 9.2 mph - N/A   Clear
1:35 AM 82.0 °F 87.0 °F 72.3 °F 72% 30.01 in 10.0 mi South 10.4 mph - N/A   Clear
1:55 AM 82.0 °F 87.0 °F 72.1 °F 72% 30.01 in 10.0 mi South 9.2 mph - N/A   Clear
2:15 AM 81.5 °F 86.1 °F 72.0 °F 73% 29.99 in 10.0 mi South 9.2 mph - N/A   Clear
2:35 AM 81.3 °F 85.8 °F 72.0 °F 73% 29.99 in 10.0 mi South 9.2 mph - N/A   Clear
2:55 AM 81.0 °F 85.2 °F 71.8 °F 74% 29.99 in 10.0 mi South 10.4 mph - N/A   Clear
3:15 AM 81.0 °F 85.1 °F 71.6 °F 73% 30.00 in 10.0 mi South 9.2 mph - N/A   Clear
3:35 AM 81.5 °F 85.9 °F 71.6 °F 72% 30.02 in 10.0 mi SSW 10.4 mph 16.1 mph N/A   Clear
3:55 AM 81.5 °F 85.9 °F 71.6 °F 72% 30.03 in 10.0 mi SSW 9.2 mph - N/A   Clear
4:15 AM 81.1 °F 85.4 °F 71.6 °F 73% 30.03 in 10.0 mi SSW 8.1 mph - N/A   Clear
4:35 AM 81.0 °F 85.1 °F 71.6 °F 73% 30.03 in 10.0 mi SW 6.9 mph - N/A   Clear
4:55 AM 80.8 °F 84.7 °F 71.6 °F 73% 30.03 in 10.0 mi SW 6.9 mph - N/A   Clear
5:15 AM 81.0 °F 85.1 °F 71.4 °F 73% 30.03 in 10.0 mi SSW 6.9 mph - N/A   Clear
5:35 AM 80.6 °F 84.4 °F 71.4 °F 73% 30.03 in 10.0 mi SSW 8.1 mph - N/A   Clear
5:55 AM 80.1 °F 83.7 °F 71.6 °F 75% 30.03 in 10.0 mi South 6.9 mph - N/A   Clear
6:15 AM 80.1 °F 83.7 °F 71.6 °F 75% 30.04 in 10.0 mi SSW 5.8 mph - N/A   Clear
6:35 AM 80.1 °F 83.7 °F 71.6 °F 75% 30.05 in 10.0 mi SSW 6.9 mph - N/A   Clear
6:55 AM 79.7 °F - 71.8 °F 77% 30.05 in 10.0 mi SSW 5.8 mph - N/A   Scattered Clouds
7:15 AM 80.1 °F 83.8 °F 71.8 °F 76% 30.05 in 10.0 mi SSW 6.9 mph - N/A   Scattered Clouds
7:35 AM 81.0 °F 85.2 °F 71.8 °F 74% 30.05 in 10.0 mi SSW 8.1 mph - N/A   Mostly Cloudy
7:55 AM 81.0 °F 85.2 °F 72.0 °F 74% 30.04 in 10.0 mi SSW 9.2 mph - N/A   Scattered Clouds
8:15 AM 81.1 °F 85.6 °F 72.0 °F 74% 30.05 in 10.0 mi South 8.1 mph - N/A   Mostly Cloudy
8:35 AM 80.8 °F 85.2 °F 72.5 °F 76% 30.07 in 10.0 mi SW 5.8 mph - N/A   Overcast
8:55 AM 80.6 °F 84.9 °F 72.5 °F 76% 30.08 in 10.0 mi SSW 6.9 mph - N/A   Overcast
9:15 AM 81.0 °F 85.4 °F 72.5 °F 75% 30.08 in 10.0 mi South 6.9 mph - N/A   Mostly Cloudy
9:35 AM 81.1 °F 85.8 °F 72.7 °F 75% 30.08 in 10.0 mi South 6.9 mph - N/A   Mostly Cloudy
9:55 AM 81.5 °F 86.5 °F 73.0 °F 75% 30.06 in 10.0 mi SSW 9.2 mph - N/A   Scattered Clouds
10:15 AM 82.6 °F 88.3 °F 73.2 °F 73% 30.06 in 10.0 mi South 8.1 mph - N/A   Clear
10:35 AM 82.9 °F 89.1 °F 73.4 °F 73% 30.07 in 10.0 mi SSE 6.9 mph - N/A   Clear
10:55 AM 84.2 °F 90.9 °F 73.4 °F 70% 30.07 in 10.0 mi South 5.8 mph - N/A   Clear
11:15 AM 86.0 °F 93.4 °F 73.4 °F 66% 30.06 in 10.0 mi South 8.1 mph - N/A   Clear
11:35 AM 86.9 °F 94.5 °F 73.2 °F 64% 30.07 in 10.0 mi SW 5.8 mph - N/A   Clear
11:55 AM 87.8 °F 95.6 °F 73.4 °F 62% 30.06 in 10.0 mi SW 6.9 mph - N/A   Clear
12:15 PM 88.5 °F 96.3 °F 73.2 °F 60% 30.06 in 10.0 mi WSW 9.2 mph - N/A   Clear
12:35 PM 89.8 °F 97.5 °F 72.7 °F 57% 30.06 in 10.0 mi SW 5.8 mph - N/A   Clear
12:55 PM 91.0 °F 98.2 °F 71.6 °F 53% 30.05 in 10.0 mi SW 9.2 mph - N/A   Clear
1:15 PM 91.6 °F 98.8 °F 72.0 °F 52% 30.04 in 10.0 mi SSW 10.4 mph - N/A   Clear
1:35 PM 90.9 °F 97.8 °F 71.8 °F 53% 30.03 in 10.0 mi SW 10.4 mph - N/A   Clear
1:55 PM 91.6 °F 98.2 °F 71.1 °F 51% 30.01 in 10.0 mi SSW 11.5 mph 17.3 mph N/A   Clear
2:15 PM 92.3 °F 98.1 °F 70.0 °F 48% 30.01 in 10.0 mi SW 11.5 mph - N/A   Clear
2:35 PM 93.2 °F 99.4 °F 70.0 °F 47% 30.01 in 10.0 mi SSW 8.1 mph - N/A   Clear
2:55 PM 93.6 °F 100.7 °F 71.1 °F 48% 30.00 in 10.0 mi South 9.2 mph 17.3 mph N/A   Clear
3:15 PM 92.8 °F 100.9 °F 72.5 °F 51% 30.00 in 10.0 mi South 10.4 mph - N/A   Scattered Clouds
3:35 PM 93.4 °F 102.1 °F 72.9 °F 51% 29.98 in 7.0 mi South 10.4 mph 16.1 mph N/A   Scattered Clouds
3:55 PM 92.5 °F 100.1 °F 72.1 °F 51% 29.99 in 10.0 mi South 9.2 mph 18.4 mph N/A   Scattered Clouds
4:15 PM 92.1 °F 99.4 °F 71.4 °F 51% 30.00 in 10.0 mi South 11.5 mph - N/A   Scattered Clouds
4:35 PM 90.7 °F 99.0 °F 72.9 °F 56% 29.97 in 10.0 mi SSE 18.4 mph 25.3 mph N/A   Clear
4:55 PM 88.2 °F 95.0 °F 72.3 °F 59% 29.98 in 10.0 mi SSE 19.6 mph 25.3 mph N/A   Clear
5:15 PM 87.3 °F 93.6 °F 72.0 °F 60% 29.98 in 10.0 mi SSE 16.1 mph 20.7 mph N/A   Clear
5:35 PM 86.0 °F 92.6 °F 72.5 °F 64% 29.97 in 10.0 mi SSE 13.8 mph 24.2 mph N/A   Clear
5:55 PM 85.6 °F 90.8 °F 70.9 °F 61% 29.97 in 10.0 mi SSE 15.0 mph 20.7 mph N/A   Clear
6:15 PM 84.4 °F 88.2 °F 68.9 °F 60% 29.99 in 10.0 mi SSE 19.6 mph 25.3 mph N/A   Clear
6:35 PM 83.1 °F 86.8 °F 69.4 °F 63% 29.99 in 10.0 mi SSE 16.1 mph 24.2 mph N/A   Clear
6:55 PM 82.8 °F 86.7 °F 69.8 °F 65% 29.99 in 10.0 mi South 16.1 mph - N/A   Clear
7:15 PM 82.4 °F 85.8 °F 69.1 °F 64% 30.00 in 10.0 mi South 16.1 mph 25.3 mph N/A   Clear
7:35 PM 81.3 °F 84.3 °F 68.4 °F 65% 30.01 in 10.0 mi South 17.3 mph 21.9 mph N/A   Clear
7:55 PM 80.1 °F 82.6 °F 67.6 °F 66% 30.00 in 10.0 mi South 18.4 mph 25.3 mph N/A   Clear
8:15 PM 79.0 °F - 67.1 °F 67% 30.00 in 10.0 mi South 16.1 mph - N/A   Clear
8:35 PM 78.1 °F - 66.9 °F 68% 30.00 in 10.0 mi South 17.3 mph 24.2 mph N/A   Clear
8:55 PM 77.7 °F - 66.7 °F 69% 30.00 in 10.0 mi South 15.0 mph 20.7 mph N/A   Clear
9:15 PM 77.2 °F - 66.6 °F 70% 30.01 in 10.0 mi South 13.8 mph - N/A   Clear
9:35 PM 77.0 °F - 66.2 °F 69% 30.01 in 10.0 mi South 12.7 mph 18.4 mph N/A   Clear
9:55 PM 76.5 °F - 65.8 °F 70% 30.03 in 10.0 mi South 15.0 mph 21.9 mph N/A   Clear
10:15 PM 76.1 °F - 65.3 °F 69% 30.02 in 10.0 mi South 13.8 mph 19.6 mph N/A   Clear
10:35 PM 76.1 °F - 64.8 °F 68% 30.03 in 10.0 mi South 16.1 mph - N/A   Clear
10:55 PM 75.6 °F - 64.0 °F 67% 30.02 in 10.0 mi South 13.8 mph 19.6 mph N/A   Clear
11:15 PM 75.7 °F - 63.5 °F 66% 30.03 in 10.0 mi South 9.2 mph 21.9 mph N/A   Clear
11:35 PM 75.4 °F - 63.0 °F 65% 30.03 in 10.0 mi SSW 11.5 mph - N/A   Clear
11:55 PM 75.6 °F - 62.6 °F 64% 30.03 in 10.0 mi SSW 9.2 mph - N/A   Clear